createdAt,value
2017-09-08T00:00:02.829Z,12.5
2017-09-08T00:00:06.668Z,12.48
2017-09-08T00:00:10.902Z,12.48
2017-09-08T00:00:15.246Z,12.48
2017-09-08T00:00:19.574Z,12.48
2017-09-08T00:00:23.774Z,12.48
2017-09-08T00:00:27.975Z,12.47
2017-09-08T00:00:32.195Z,12.47
2017-09-08T00:00:36.160Z,12.47
2017-09-08T00:00:40.505Z,12.46
2017-09-08T00:00:44.586Z,12.46
2017-09-08T00:00:48.914Z,12.46
2017-09-08T00:00:53.009Z,12.46
2017-09-08T00:00:57.116Z,12.46
2017-09-08T00:01:01.082Z,12.46
2017-09-08T00:01:05.157Z,12.46
2017-09-08T00:01:09.356Z,12.46
2017-09-08T00:01:13.441Z,12.46
2017-09-08T00:01:17.776Z,12.45
2017-09-08T00:01:22.116Z,12.45
2017-09-08T00:01:26.326Z,12.45
2017-09-08T00:01:30.421Z,12.45
2017-09-08T00:01:34.518Z,12.45
2017-09-08T00:01:38.868Z,12.45
2017-09-08T00:01:42.934Z,12.45
2017-09-08T00:01:47.138Z,12.43
2017-09-08T00:01:51.353Z,12.44
2017-09-08T00:01:55.728Z,12.44
2017-09-08T00:01:59.938Z,12.44
2017-09-08T00:02:04.023Z,12.44
2017-09-08T00:02:08.122Z,12.43
2017-09-08T00:02:12.346Z,12.43
2017-09-08T00:02:16.437Z,12.43
2017-09-08T00:02:20.531Z,12.43
2017-09-08T00:02:24.874Z,12.43
2017-09-08T00:02:29.103Z,12.43
2017-09-08T00:02:33.206Z,12.43
2017-09-08T00:02:37.431Z,12.42
2017-09-08T00:02:41.784Z,12.43
2017-09-08T00:02:45.864Z,12.43
2017-09-08T00:02:50.072Z,12.42
2017-09-08T00:02:54.527Z,12.42
2017-09-08T00:02:58.468Z,12.42
2017-09-08T00:03:02.818Z,12.42
2017-09-08T00:03:06.913Z,12.41
2017-09-08T00:03:10.983Z,12.41
2017-09-08T00:03:15.208Z,12.42
2017-09-08T00:03:19.291Z,12.41
2017-09-08T00:03:23.255Z,12.41
2017-09-08T00:03:27.449Z,12.41
2017-09-08T00:03:31.540Z,12.41
2017-09-08T00:03:35.503Z,12.41
2017-09-08T00:03:39.585Z,12.4
2017-09-08T00:03:43.781Z,12.41
2017-09-08T00:03:47.996Z,12.4
2017-09-08T00:03:52.097Z,12.4
2017-09-08T00:03:56.564Z,12.41
2017-09-08T00:04:00.905Z,12.4
2017-09-08T00:04:05.591Z,12.4
2017-09-08T00:04:09.682Z,12.39
2017-09-08T00:04:14.005Z,12.39
2017-09-08T00:04:18.088Z,12.4
2017-09-08T00:04:22.051Z,12.4
2017-09-08T00:04:26.278Z,12.4
2017-09-08T00:04:30.376Z,12.39
2017-09-08T00:04:34.588Z,12.38
2017-09-08T00:04:38.552Z,12.39
2017-09-08T00:04:42.754Z,12.39
2017-09-08T00:04:47.081Z,12.39
2017-09-08T00:04:51.169Z,12.38
2017-09-08T00:04:55.384Z,12.38
2017-09-08T00:04:59.600Z,12.38
2017-09-08T00:05:03.685Z,12.38
2017-09-08T00:05:08.020Z,12.39
2017-09-08T00:05:12.116Z,12.39
2017-09-08T00:05:16.313Z,12.38
2017-09-08T00:05:20.535Z,12.38
2017-09-08T00:05:24.518Z,12.38
2017-09-08T00:05:28.599Z,12.38
2017-09-08T00:05:32.546Z,12.38
2017-09-08T00:05:36.787Z,12.38
2017-09-08T00:05:40.862Z,12.38
2017-09-08T00:05:45.325Z,12.38
2017-09-08T00:05:49.409Z,12.38
2017-09-08T00:05:53.887Z,12.37
2017-09-08T00:05:57.849Z,12.37
2017-09-08T00:06:01.816Z,12.38
2017-09-08T00:06:05.910Z,12.37
2017-09-08T00:06:10.123Z,12.37
2017-09-08T00:06:14.380Z,12.37
2017-09-08T00:06:18.434Z,12.37
2017-09-08T00:06:22.764Z,12.37
2017-09-08T00:06:26.976Z,12.37
2017-09-08T00:06:31.194Z,12.36
2017-09-08T00:06:35.283Z,12.36
2017-09-08T00:06:39.365Z,12.36
2017-09-08T00:06:43.582Z,12.36
2017-09-08T00:06:47.902Z,12.36
2017-09-08T00:06:52.254Z,12.36
2017-09-08T00:06:56.204Z,12.36
2017-09-08T00:07:00.666Z,12.36
2017-09-08T00:07:05.082Z,12.36
2017-09-08T00:07:09.287Z,12.36
2017-09-08T00:07:13.490Z,12.37
2017-09-08T00:07:17.821Z,12.37
2017-09-08T00:07:21.800Z,12.36
2017-09-08T00:07:25.940Z,12.36
2017-09-08T00:07:30.282Z,12.36
2017-09-08T00:07:34.615Z,12.36
2017-09-08T00:07:38.685Z,12.37
2017-09-08T00:07:43.147Z,12.36
2017-09-08T00:07:47.470Z,12.36
2017-09-08T00:07:51.560Z,12.35
2017-09-08T00:07:55.791Z,12.35
2017-09-08T00:08:00.265Z,12.36
2017-09-08T00:08:04.555Z,12.36
2017-09-08T00:08:08.655Z,12.36
2017-09-08T00:08:12.998Z,12.35
2017-09-08T00:08:17.448Z,12.36
2017-09-08T00:08:21.779Z,12.36
2017-09-08T00:08:25.747Z,12.37
2017-09-08T00:08:29.966Z,12.36
2017-09-08T00:08:34.193Z,12.36
2017-09-08T00:08:38.270Z,12.37
2017-09-08T00:08:42.368Z,12.36
2017-09-08T00:08:46.707Z,12.36
2017-09-08T00:08:51.055Z,12.36
2017-09-08T00:08:55.381Z,12.36
2017-09-08T00:08:59.598Z,12.36
2017-09-08T00:09:03.810Z,12.36
2017-09-08T00:09:07.522Z,12.36
2017-09-08T00:09:11.474Z,12.36
2017-09-08T00:09:15.563Z,12.36
2017-09-08T00:09:20.038Z,12.36
2017-09-08T00:09:24.500Z,12.37
2017-09-08T00:09:28.731Z,12.36
2017-09-08T00:09:33.055Z,12.36
2017-09-08T00:09:37.275Z,12.36
2017-09-08T00:09:41.481Z,12.36
2017-09-08T00:09:45.549Z,12.36
2017-09-08T00:09:49.749Z,12.35
2017-09-08T00:09:53.949Z,12.36
2017-09-08T00:09:58.031Z,12.36
2017-09-08T00:10:01.875Z,12.36
2017-09-08T00:10:05.787Z,12.37
2017-09-08T00:10:09.994Z,12.36
2017-09-08T00:10:14.073Z,12.35
2017-09-08T00:10:18.525Z,12.35
2017-09-08T00:10:22.747Z,12.36
2017-09-08T00:10:27.081Z,12.36
2017-09-08T00:10:31.183Z,12.36
2017-09-08T00:10:35.272Z,12.37
2017-09-08T00:10:39.606Z,12.35
2017-09-08T00:10:43.580Z,12.36
2017-09-08T00:10:47.915Z,12.36
2017-09-08T00:10:51.863Z,12.36
2017-09-08T00:10:56.203Z,12.36
2017-09-08T00:11:00.406Z,12.36
2017-09-08T00:11:04.480Z,12.36
2017-09-08T00:11:08.815Z,12.36
2017-09-08T00:11:12.912Z,12.36
2017-09-08T00:11:17.131Z,12.36
2017-09-08T00:11:21.326Z,12.36
2017-09-08T00:11:25.552Z,12.36
2017-09-08T00:11:30.014Z,12.36
2017-09-08T00:11:33.967Z,12.37
2017-09-08T00:11:38.186Z,12.36
2017-09-08T00:11:42.521Z,12.36
2017-09-08T00:11:46.861Z,12.37
2017-09-08T00:11:50.962Z,12.36
2017-09-08T00:11:55.046Z,12.37
2017-09-08T00:11:59.269Z,12.37
2017-09-08T00:12:03.263Z,12.37
2017-09-08T00:12:07.351Z,12.36
2017-09-08T00:12:11.435Z,12.37
2017-09-08T00:12:15.643Z,12.36
2017-09-08T00:12:19.487Z,12.37
2017-09-08T00:12:23.826Z,12.38
2017-09-08T00:12:28.035Z,12.36
2017-09-08T00:12:32.003Z,12.36
2017-09-08T00:12:36.092Z,12.36
2017-09-08T00:12:40.313Z,12.36
2017-09-08T00:12:44.649Z,12.36
2017-09-08T00:12:48.875Z,12.36
2017-09-08T00:12:53.205Z,12.37
2017-09-08T00:12:57.295Z,12.37
2017-09-08T00:13:01.369Z,12.37
2017-09-08T00:13:05.700Z,12.36
2017-09-08T00:13:09.660Z,12.37
2017-09-08T00:13:14.121Z,12.36
2017-09-08T00:13:18.220Z,12.37
2017-09-08T00:13:22.436Z,12.37
2017-09-08T00:13:26.530Z,12.37
2017-09-08T00:13:30.725Z,12.37
2017-09-08T00:13:35.045Z,12.37
2017-09-08T00:13:38.873Z,12.37
2017-09-08T00:13:42.837Z,12.37
2017-09-08T00:13:47.038Z,12.37
2017-09-08T00:13:51.131Z,12.38
2017-09-08T00:13:55.210Z,12.37
2017-09-08T00:13:59.548Z,12.37
2017-09-08T00:14:03.649Z,12.37
2017-09-08T00:14:07.855Z,12.37
2017-09-08T00:14:11.820Z,12.37
2017-09-08T00:14:15.898Z,12.37
2017-09-08T00:14:19.859Z,12.37
2017-09-08T00:14:23.822Z,12.36
2017-09-08T00:14:27.649Z,12.37
2017-09-08T00:14:31.858Z,12.36
2017-09-08T00:14:35.805Z,12.36
2017-09-08T00:14:39.898Z,12.36
2017-09-08T00:14:44.352Z,12.37
2017-09-08T00:14:48.818Z,12.37
2017-09-08T00:14:53.150Z,12.37
2017-09-08T00:14:57.235Z,12.36
2017-09-08T00:15:01.344Z,12.36
2017-09-08T00:15:05.424Z,12.37
2017-09-08T00:15:09.369Z,12.37
2017-09-08T00:15:13.719Z,12.37
2017-09-08T00:15:17.803Z,12.37
2017-09-08T00:15:21.889Z,12.36
2017-09-08T00:15:26.098Z,12.36
2017-09-08T00:15:30.441Z,12.36
2017-09-08T00:15:34.680Z,12.37
2017-09-08T00:15:38.905Z,12.36
2017-09-08T00:15:42.993Z,12.36
2017-09-08T00:15:47.202Z,12.36
2017-09-08T00:15:51.408Z,12.36
2017-09-08T00:15:55.611Z,12.36
2017-09-08T00:15:59.960Z,12.36
2017-09-08T00:16:03.935Z,12.36
2017-09-08T00:16:07.934Z,12.36
2017-09-08T00:16:12.265Z,12.36
2017-09-08T00:16:16.487Z,12.36
2017-09-08T00:16:20.823Z,12.36
2017-09-08T00:16:24.771Z,12.36
2017-09-08T00:16:29.087Z,12.37
2017-09-08T00:16:33.308Z,12.36
2017-09-08T00:16:37.268Z,12.36
2017-09-08T00:16:41.362Z,12.36
2017-09-08T00:16:45.335Z,12.36
2017-09-08T00:16:49.284Z,12.35
2017-09-08T00:16:53.602Z,12.35
2017-09-08T00:16:57.831Z,12.36
2017-09-08T00:17:02.154Z,12.35
2017-09-08T00:17:06.361Z,12.35
2017-09-08T00:17:10.569Z,12.35
2017-09-08T00:17:14.903Z,12.36
2017-09-08T00:17:19.109Z,12.35
2017-09-08T00:17:23.198Z,12.35
2017-09-08T00:17:27.541Z,12.35
2017-09-08T00:17:31.618Z,12.36
2017-09-08T00:17:35.573Z,12.35
2017-09-08T00:17:40.053Z,12.35
2017-09-08T00:17:44.256Z,12.35
2017-09-08T00:17:48.345Z,12.35
2017-09-08T00:17:52.435Z,12.34
2017-09-08T00:17:56.779Z,12.34
2017-09-08T00:18:01.117Z,12.34
2017-09-08T00:18:05.761Z,12.34
2017-09-08T00:18:09.975Z,12.34
2017-09-08T00:18:13.932Z,12.34
2017-09-08T00:18:18.147Z,12.34
2017-09-08T00:18:22.245Z,12.34
2017-09-08T00:18:26.337Z,12.34
2017-09-08T00:18:30.049Z,12.33
2017-09-08T00:18:34.020Z,12.33
2017-09-08T00:18:38.481Z,12.34
2017-09-08T00:18:42.802Z,12.33
2017-09-08T00:18:47.021Z,12.33
2017-09-08T00:18:51.231Z,12.33
2017-09-08T00:18:55.060Z,12.34
2017-09-08T00:18:59.156Z,12.33
2017-09-08T00:19:03.369Z,12.33
2017-09-08T00:19:07.838Z,12.33
2017-09-08T00:19:11.777Z,12.33
2017-09-08T00:19:15.740Z,12.32
2017-09-08T00:19:19.829Z,12.31
2017-09-08T00:19:23.907Z,12.33
2017-09-08T00:19:28.246Z,12.31
2017-09-08T00:19:32.470Z,12.31
2017-09-08T00:19:36.971Z,12.31
2017-09-08T00:19:41.171Z,12.31
2017-09-08T00:19:45.246Z,12.3
2017-09-08T00:19:49.455Z,12.3
2017-09-08T00:19:53.664Z,12.3
2017-09-08T00:19:57.729Z,12.31
2017-09-08T00:20:01.807Z,12.3
2017-09-08T00:20:05.781Z,12.3
2017-09-08T00:20:09.864Z,12.29
2017-09-08T00:20:14.057Z,12.29
2017-09-08T00:20:18.270Z,12.29
2017-09-08T00:20:22.493Z,12.29
2017-09-08T00:20:26.599Z,12.28
2017-09-08T00:20:30.935Z,12.29
2017-09-08T00:20:35.152Z,12.28
2017-09-08T00:20:39.103Z,12.28
2017-09-08T00:20:43.193Z,12.28
2017-09-08T00:20:47.284Z,12.27
2017-09-08T00:20:51.230Z,12.27
2017-09-08T00:20:55.430Z,12.27
2017-09-08T00:20:59.760Z,12.26
2017-09-08T00:21:03.779Z,12.26
2017-09-08T00:21:07.999Z,12.26
2017-09-08T00:21:12.199Z,12.26
2017-09-08T00:21:16.401Z,12.26
2017-09-08T00:21:20.480Z,12.25
2017-09-08T00:21:24.943Z,12.26
2017-09-08T00:21:28.917Z,12.24
2017-09-08T00:21:33.118Z,12.25
2017-09-08T00:21:37.089Z,12.24
2017-09-08T00:21:41.182Z,12.24
2017-09-08T00:21:45.262Z,12.24
2017-09-08T00:21:49.221Z,12.24
2017-09-08T00:21:53.418Z,12.24
2017-09-08T00:21:57.516Z,12.23
2017-09-08T00:22:01.709Z,12.22
2017-09-08T00:22:05.665Z,12.22
2017-09-08T00:22:09.495Z,12.22
2017-09-08T00:22:13.462Z,12.22
2017-09-08T00:22:17.801Z,12.22
2017-09-08T00:22:21.625Z,12.21
2017-09-08T00:22:25.828Z,12.21
2017-09-08T00:22:30.167Z,12.21
2017-09-08T00:22:34.256Z,12.21
2017-09-08T00:22:38.213Z,12.21
2017-09-08T00:22:42.308Z,12.2
2017-09-08T00:22:46.780Z,12.2
2017-09-08T00:22:50.728Z,12.2
2017-09-08T00:22:54.936Z,12.2
2017-09-08T00:22:59.157Z,12.2
2017-09-08T00:23:03.288Z,12.2
2017-09-08T00:23:07.635Z,12.18
2017-09-08T00:23:11.844Z,12.19
2017-09-08T00:23:15.791Z,12.19
2017-09-08T00:23:19.889Z,12.18
2017-09-08T00:23:24.212Z,12.18
2017-09-08T00:23:28.430Z,12.18
2017-09-08T00:23:32.643Z,12.18
2017-09-08T00:23:36.851Z,12.18
2017-09-08T00:23:40.928Z,12.18
2017-09-08T00:23:45.016Z,12.17
2017-09-08T00:23:49.219Z,12.17
2017-09-08T00:23:53.176Z,12.16
2017-09-08T00:23:57.382Z,12.15
2017-09-08T00:24:01.585Z,12.16
2017-09-08T00:24:05.813Z,12.16
2017-09-08T00:24:09.907Z,12.14
2017-09-08T00:24:14.225Z,12.15
2017-09-08T00:24:18.443Z,12.15
2017-09-08T00:24:22.660Z,12.15
2017-09-08T00:24:26.745Z,12.14
2017-09-08T00:24:30.835Z,12.13
2017-09-08T00:24:34.804Z,12.14
2017-09-08T00:24:38.877Z,12.12
2017-09-08T00:24:43.233Z,12.13
2017-09-08T00:24:47.078Z,12.12
2017-09-08T00:24:50.914Z,12.12
2017-09-08T00:24:55.245Z,12.11
2017-09-08T00:24:59.069Z,12.12
2017-09-08T00:25:03.444Z,12.11
2017-09-08T00:25:07.413Z,12.12
2017-09-08T00:25:11.620Z,12.1
2017-09-08T00:25:16.097Z,12.1
2017-09-08T00:25:20.442Z,12.1
2017-09-08T00:25:24.385Z,12.09
2017-09-08T00:25:28.847Z,12.1
2017-09-08T00:25:33.060Z,12.09
2017-09-08T00:25:37.146Z,12.08
2017-09-08T00:25:41.130Z,12.08
2017-09-08T00:25:45.093Z,12.08
2017-09-08T00:25:49.300Z,12.07
2017-09-08T00:25:53.643Z,12.08
2017-09-08T00:25:57.854Z,12.07
2017-09-08T00:26:02.183Z,12.07
2017-09-08T00:26:06.273Z,12.06
2017-09-08T00:26:10.355Z,12.06
2017-09-08T00:26:14.446Z,12.06
2017-09-08T00:26:18.645Z,12.06
2017-09-08T00:26:22.856Z,12.05
2017-09-08T00:26:27.114Z,12.05
2017-09-08T00:26:31.446Z,12.04
2017-09-08T00:26:35.525Z,12.04
2017-09-08T00:26:39.605Z,12.04
2017-09-08T00:26:43.945Z,12.04
2017-09-08T00:26:48.042Z,12.03
2017-09-08T00:26:51.873Z,12.03
2017-09-08T00:26:55.956Z,12.03
2017-09-08T00:27:00.047Z,12.03
2017-09-08T00:27:04.726Z,12.02
2017-09-08T00:27:08.808Z,12.01
2017-09-08T00:27:12.768Z,12.02
2017-09-08T00:27:16.984Z,12.01
2017-09-08T00:27:21.204Z,12.01
2017-09-08T00:27:25.410Z,12
2017-09-08T00:27:29.515Z,12
2017-09-08T00:27:33.482Z,12
2017-09-08T00:27:37.696Z,11.99
2017-09-08T00:27:41.910Z,11.99
2017-09-08T00:27:46.247Z,11.99
2017-09-08T00:27:50.450Z,11.99
2017-09-08T00:27:54.907Z,11.98
2017-09-08T00:27:58.858Z,11.99
2017-09-08T00:28:03.032Z,11.98
2017-09-08T00:28:07.109Z,11.98
2017-09-08T00:28:11.304Z,11.98
2017-09-08T00:28:15.128Z,11.97
2017-09-08T00:28:19.089Z,11.97
2017-09-08T00:28:23.294Z,11.96
2017-09-08T00:28:27.620Z,11.97
2017-09-08T00:28:31.575Z,11.96
2017-09-08T00:28:35.647Z,11.96
2017-09-08T00:28:39.860Z,11.95
2017-09-08T00:28:43.714Z,11.96
2017-09-08T00:28:48.042Z,11.95
2017-09-08T00:28:51.879Z,11.94
2017-09-08T00:28:56.082Z,11.94
2017-09-08T00:29:00.166Z,11.93
2017-09-08T00:29:04.159Z,11.94
2017-09-08T00:29:08.493Z,11.93
2017-09-08T00:29:12.577Z,11.93
2017-09-08T00:29:16.533Z,11.92
2017-09-08T00:29:20.734Z,11.92
2017-09-08T00:29:25.062Z,11.92
2017-09-08T00:29:29.404Z,11.9
2017-09-08T00:29:33.612Z,11.9
2017-09-08T00:29:37.703Z,11.9
2017-09-08T00:29:41.777Z,11.89
2017-09-08T00:29:45.984Z,11.89
2017-09-08T00:29:50.072Z,11.89
2017-09-08T00:29:54.553Z,11.88
2017-09-08T00:29:58.769Z,11.88
2017-09-08T00:30:03.165Z,11.88
2017-09-08T00:30:07.251Z,11.88
2017-09-08T00:30:11.338Z,11.87
2017-09-08T00:30:15.416Z,11.87
2017-09-08T00:30:19.511Z,11.87
2017-09-08T00:30:23.733Z,11.85
2017-09-08T00:30:27.707Z,11.85
2017-09-08T00:30:31.802Z,11.86
2017-09-08T00:30:36.017Z,11.84
2017-09-08T00:30:40.213Z,11.84
2017-09-08T00:30:44.175Z,11.84
2017-09-08T00:30:48.378Z,11.84
2017-09-08T00:30:52.470Z,11.84
2017-09-08T00:30:56.433Z,11.84
2017-09-08T00:31:00.642Z,11.83
2017-09-08T00:31:04.608Z,11.82
2017-09-08T00:31:09.065Z,11.82
2017-09-08T00:31:13.529Z,11.81
2017-09-08T00:31:17.751Z,11.81
2017-09-08T00:31:21.980Z,11.81
2017-09-08T00:31:26.060Z,11.81
2017-09-08T00:31:30.260Z,11.8
2017-09-08T00:31:34.350Z,11.81
2017-09-08T00:31:38.322Z,11.8
2017-09-08T00:31:42.539Z,11.8
2017-09-08T00:31:46.758Z,11.78
2017-09-08T00:31:50.834Z,11.79
2017-09-08T00:31:55.048Z,11.78
2017-09-08T00:31:59.164Z,11.79
2017-09-08T00:32:03.264Z,11.78
2017-09-08T00:32:07.368Z,11.77
2017-09-08T00:32:11.333Z,11.77
2017-09-08T00:32:47.520Z,11.75
2017-09-08T00:32:51.611Z,11.73
2017-09-08T00:32:55.691Z,11.74
2017-09-08T00:32:59.900Z,11.74
2017-09-08T00:33:04.239Z,11.73
2017-09-08T00:33:08.188Z,11.73
2017-09-08T00:33:12.154Z,11.73
2017-09-08T00:33:16.373Z,11.72
2017-09-08T00:33:20.334Z,11.72
2017-09-08T00:33:24.662Z,11.71
2017-09-08T00:33:29.170Z,11.71
2017-09-08T00:33:33.139Z,11.7
2017-09-08T00:33:37.095Z,11.71
2017-09-08T00:33:41.173Z,11.69
2017-09-08T00:33:45.146Z,11.7
2017-09-08T00:33:49.114Z,11.69
2017-09-08T00:33:53.076Z,11.69
2017-09-08T00:33:57.051Z,11.68
2017-09-08T00:34:01.257Z,11.68
2017-09-08T00:34:05.452Z,11.67
2017-09-08T00:34:09.675Z,11.67
2017-09-08T00:34:13.758Z,11.67
2017-09-08T00:34:17.981Z,11.67
2017-09-08T00:34:22.071Z,11.66
2017-09-08T00:34:26.149Z,11.67
2017-09-08T00:34:30.365Z,11.66
2017-09-08T00:34:34.318Z,11.66
2017-09-08T00:34:38.402Z,11.65
2017-09-08T00:34:42.847Z,11.64
2017-09-08T00:34:46.944Z,11.64
2017-09-08T00:34:50.770Z,11.63
2017-09-08T00:34:55.109Z,11.64
2017-09-08T00:34:59.570Z,11.63
2017-09-08T00:35:03.672Z,11.62
2017-09-08T00:35:07.767Z,11.63
2017-09-08T00:35:11.966Z,11.61
2017-09-08T00:35:16.051Z,11.62
2017-09-08T00:35:20.015Z,11.61
2017-09-08T00:35:23.982Z,11.6
2017-09-08T00:35:28.187Z,11.61
2017-09-08T00:35:32.143Z,11.59
2017-09-08T00:35:36.341Z,11.59
2017-09-08T00:35:40.306Z,11.59
2017-09-08T00:35:44.386Z,11.59
2017-09-08T00:35:48.473Z,11.58
2017-09-08T00:35:52.563Z,11.59
2017-09-08T00:35:56.780Z,11.57
2017-09-08T00:36:00.725Z,11.57
2017-09-08T00:36:04.976Z,11.56
2017-09-08T00:36:09.201Z,11.56
2017-09-08T00:36:13.532Z,11.55
2017-09-08T00:36:17.624Z,11.56
2017-09-08T00:36:21.584Z,11.55
2017-09-08T00:36:25.805Z,11.55
2017-09-08T00:36:30.020Z,11.54
2017-09-08T00:36:33.957Z,11.53
2017-09-08T00:36:37.924Z,11.54
2017-09-08T00:36:42.020Z,11.53
2017-09-08T00:36:46.229Z,11.53
2017-09-08T00:36:50.190Z,11.53
2017-09-08T00:36:54.520Z,11.51
2017-09-08T00:36:58.727Z,11.51
2017-09-08T00:37:03.101Z,11.51
2017-09-08T00:37:07.183Z,11.51
2017-09-08T00:37:11.146Z,11.5
2017-09-08T00:37:15.220Z,11.5
2017-09-08T00:37:19.432Z,11.49
2017-09-08T00:37:23.639Z,11.48
2017-09-08T00:37:27.726Z,11.5
2017-09-08T00:37:31.683Z,11.48
2017-09-08T00:37:35.758Z,11.47
2017-09-08T00:37:40.098Z,11.47
2017-09-08T00:37:44.301Z,11.47
2017-09-08T00:37:48.271Z,11.47
2017-09-08T00:37:52.091Z,11.46
2017-09-08T00:37:56.176Z,11.45
2017-09-08T00:38:00.640Z,11.46
2017-09-08T00:38:05.049Z,11.45
2017-09-08T00:38:09.381Z,11.44
2017-09-08T00:38:13.709Z,11.43
2017-09-08T00:38:17.672Z,11.43
2017-09-08T00:38:22.066Z,11.43
2017-09-08T00:38:26.243Z,11.43
2017-09-08T00:38:30.322Z,11.43
2017-09-08T00:38:34.279Z,11.43
2017-09-08T00:38:38.746Z,11.43
2017-09-08T00:38:43.075Z,11.42
2017-09-08T00:38:47.413Z,11.41
2017-09-08T00:38:51.492Z,11.42
2017-09-08T00:38:55.994Z,11.41
2017-09-08T00:39:00.214Z,11.41
2017-09-08T00:39:04.682Z,11.4
2017-09-08T00:39:09.016Z,11.39
2017-09-08T00:39:13.360Z,11.4
2017-09-08T00:39:17.559Z,11.38
2017-09-08T00:39:21.745Z,11.38
2017-09-08T00:39:25.958Z,11.38
2017-09-08T00:39:29.926Z,11.37
2017-09-08T00:39:34.128Z,11.37
2017-09-08T00:39:38.216Z,11.37
2017-09-08T00:39:42.162Z,11.37
2017-09-08T00:39:46.491Z,11.36
2017-09-08T00:39:50.589Z,11.35
2017-09-08T00:39:54.926Z,11.36
2017-09-08T00:39:59.138Z,11.35
2017-09-08T00:40:03.350Z,11.34
2017-09-08T00:40:07.317Z,11.34
2017-09-08T00:40:11.411Z,11.34
2017-09-08T00:40:15.633Z,11.33
2017-09-08T00:40:19.612Z,11.34
2017-09-08T00:40:23.444Z,11.33
2017-09-08T00:40:27.525Z,11.33
2017-09-08T00:40:31.845Z,11.33
2017-09-08T00:40:35.807Z,11.33
2017-09-08T00:40:40.263Z,11.32
2017-09-08T00:40:44.589Z,11.31
2017-09-08T00:40:48.678Z,11.32
2017-09-08T00:40:53.023Z,11.31
2017-09-08T00:40:57.235Z,11.32
2017-09-08T00:41:01.211Z,11.3
2017-09-08T00:41:05.300Z,11.31
2017-09-08T00:41:09.514Z,11.3
2017-09-08T00:41:13.843Z,11.3
2017-09-08T00:41:18.053Z,11.3
2017-09-08T00:41:22.135Z,11.3
2017-09-08T00:41:26.099Z,11.3
2017-09-08T00:41:30.314Z,11.29
2017-09-08T00:41:34.524Z,11.29
2017-09-08T00:41:38.864Z,11.29
2017-09-08T00:41:43.317Z,11.28
2017-09-08T00:41:47.650Z,11.28
2017-09-08T00:41:51.480Z,11.28
2017-09-08T00:41:55.686Z,11.28
2017-09-08T00:41:59.888Z,11.28
2017-09-08T00:42:03.718Z,11.27
2017-09-08T00:42:07.943Z,11.27
2017-09-08T00:42:12.161Z,11.26
2017-09-08T00:42:16.372Z,11.27
2017-09-08T00:42:20.332Z,11.26
2017-09-08T00:42:24.660Z,11.26
2017-09-08T00:42:28.873Z,11.27
2017-09-08T00:42:33.198Z,11.25
2017-09-08T00:42:37.168Z,11.26
2017-09-08T00:42:41.257Z,11.25
2017-09-08T00:42:45.470Z,11.25
2017-09-08T00:42:49.428Z,11.25
2017-09-08T00:42:53.511Z,11.25
2017-09-08T00:42:57.722Z,11.24
2017-09-08T00:43:02.082Z,11.24
2017-09-08T00:43:06.176Z,11.24
2017-09-08T00:43:10.405Z,11.25
2017-09-08T00:43:14.508Z,11.24
2017-09-08T00:43:18.856Z,11.23
2017-09-08T00:43:23.300Z,11.23
2017-09-08T00:43:27.375Z,11.23
2017-09-08T00:43:31.697Z,11.23
2017-09-08T00:43:35.890Z,11.22
2017-09-08T00:43:40.237Z,11.22
2017-09-08T00:43:44.315Z,11.22
2017-09-08T00:43:48.787Z,11.23
2017-09-08T00:43:52.777Z,11.23
2017-09-08T00:43:56.845Z,11.22
2017-09-08T00:44:00.925Z,11.22
2017-09-08T00:44:05.004Z,11.22
2017-09-08T00:44:09.077Z,11.22
2017-09-08T00:44:13.285Z,11.22
2017-09-08T00:44:17.617Z,11.22
2017-09-08T00:44:21.820Z,11.22
2017-09-08T00:44:25.644Z,11.22
2017-09-08T00:44:29.860Z,11.22
2017-09-08T00:44:34.075Z,11.22
2017-09-08T00:44:38.167Z,11.22
2017-09-08T00:44:42.496Z,11.21
2017-09-08T00:44:46.709Z,11.22
2017-09-08T00:44:50.528Z,11.21
2017-09-08T00:44:54.861Z,11.21
2017-09-08T00:44:58.937Z,11.21
2017-09-08T00:45:03.329Z,11.22
2017-09-08T00:45:07.560Z,11.22
2017-09-08T00:45:11.762Z,11.21
2017-09-08T00:45:15.974Z,11.22
2017-09-08T00:45:20.050Z,11.21
2017-09-08T00:45:24.134Z,11.21
2017-09-08T00:45:28.267Z,11.21
2017-09-08T00:45:32.243Z,11.21
2017-09-08T00:45:36.212Z,11.21
2017-09-08T00:45:40.174Z,11.21
2017-09-08T00:45:44.513Z,11.2
2017-09-08T00:45:48.740Z,11.21
2017-09-08T00:45:52.939Z,11.2
2017-09-08T00:45:56.778Z,11.21
2017-09-08T00:46:01.119Z,11.2
2017-09-08T00:46:05.208Z,11.2
2017-09-08T00:46:09.426Z,11.19
2017-09-08T00:46:13.512Z,11.19
2017-09-08T00:46:17.598Z,11.19
2017-09-08T00:46:21.806Z,11.18
2017-09-08T00:46:25.641Z,11.19
2017-09-08T00:46:29.594Z,11.19
2017-09-08T00:46:33.563Z,11.18
2017-09-08T00:46:37.523Z,11.18
2017-09-08T00:46:41.851Z,11.18
2017-09-08T00:46:45.933Z,11.18
2017-09-08T00:46:50.157Z,11.18
2017-09-08T00:46:54.503Z,11.17
2017-09-08T00:46:58.592Z,11.18
2017-09-08T00:47:02.816Z,11.17
2017-09-08T00:47:07.029Z,11.17
2017-09-08T00:47:11.383Z,11.17
2017-09-08T00:47:15.589Z,11.17
2017-09-08T00:47:19.683Z,11.16
2017-09-08T00:47:24.013Z,11.17
2017-09-08T00:47:28.221Z,11.17
2017-09-08T00:47:32.182Z,11.16
2017-09-08T00:47:36.404Z,11.16
2017-09-08T00:47:40.746Z,11.16
2017-09-08T00:47:44.708Z,11.16
2017-09-08T00:47:48.935Z,11.16
2017-09-08T00:47:52.902Z,11.16
2017-09-08T00:47:56.985Z,11.15
2017-09-08T00:48:01.365Z,11.15
2017-09-08T00:48:05.789Z,11.14
2017-09-08T00:48:09.748Z,11.14
2017-09-08T00:48:13.958Z,11.14
2017-09-08T00:48:18.165Z,11.14
2017-09-08T00:48:22.001Z,11.14
2017-09-08T00:48:26.471Z,11.14
2017-09-08T00:48:30.565Z,11.14
2017-09-08T00:48:34.523Z,11.13
2017-09-08T00:48:38.352Z,11.14
2017-09-08T00:48:42.439Z,11.13
2017-09-08T00:48:46.653Z,11.13
2017-09-08T00:48:50.485Z,11.14
2017-09-08T00:48:54.440Z,11.13
2017-09-08T00:48:58.399Z,11.13
2017-09-08T00:49:02.618Z,11.14
2017-09-08T00:49:06.963Z,11.12
2017-09-08T00:49:10.921Z,11.13
2017-09-08T00:49:15.153Z,11.12
2017-09-08T00:49:19.363Z,11.12
2017-09-08T00:49:23.441Z,11.12
2017-09-08T00:49:27.775Z,11.12
2017-09-08T00:49:32.119Z,11.11
2017-09-08T00:49:36.473Z,11.11
2017-09-08T00:49:40.798Z,11.12
2017-09-08T00:49:44.883Z,11.12
2017-09-08T00:49:48.847Z,11.12
2017-09-08T00:49:53.059Z,11.12
2017-09-08T00:49:57.258Z,11.1
2017-09-08T00:50:01.338Z,11.11
2017-09-08T00:50:05.627Z,11.11
2017-09-08T00:50:09.715Z,11.11
2017-09-08T00:50:14.176Z,11.1
2017-09-08T00:50:18.271Z,11.11
2017-09-08T00:50:22.478Z,11.1
2017-09-08T00:50:26.570Z,11.1
2017-09-08T00:50:30.779Z,11.1
2017-09-08T00:50:35.106Z,11.1
2017-09-08T00:50:39.072Z,11.1
2017-09-08T00:50:43.282Z,11.09
2017-09-08T00:50:47.744Z,11.09
2017-09-08T00:50:51.698Z,11.09
2017-09-08T00:50:55.925Z,11.09
2017-09-08T00:50:59.886Z,11.09
2017-09-08T00:51:03.839Z,11.08
2017-09-08T00:51:07.942Z,11.08
2017-09-08T00:51:12.038Z,11.09
2017-09-08T00:51:15.997Z,11.08
2017-09-08T00:51:20.334Z,11.07
2017-09-08T00:51:24.037Z,11.07
2017-09-08T00:51:28.294Z,11.08
2017-09-08T00:51:32.489Z,11.07
2017-09-08T00:51:36.681Z,11.07
2017-09-08T00:51:40.784Z,11.06
2017-09-08T00:51:44.988Z,11.07
2017-09-08T00:51:49.192Z,11.06
2017-09-08T00:51:53.272Z,11.06
2017-09-08T00:51:57.355Z,11.06
2017-09-08T00:52:01.328Z,11.06
2017-09-08T00:52:05.428Z,11.06
2017-09-08T00:52:09.512Z,11.06
2017-09-08T00:52:13.858Z,11.05
2017-09-08T00:52:18.078Z,11.06
2017-09-08T00:52:22.419Z,11.05
2017-09-08T00:52:26.499Z,11.05
2017-09-08T00:52:30.580Z,11.04
2017-09-08T00:52:34.815Z,11.05
2017-09-08T00:52:38.765Z,11.05
2017-09-08T00:52:42.983Z,11.04
2017-09-08T00:52:47.309Z,11.05
2017-09-08T00:52:51.275Z,11.04
2017-09-08T00:52:55.241Z,11.04
2017-09-08T00:52:59.687Z,11.04
2017-09-08T00:53:04.061Z,11.04
2017-09-08T00:53:08.282Z,11.04
2017-09-08T00:53:12.360Z,11.04
2017-09-08T00:53:16.569Z,11.03
2017-09-08T00:53:20.789Z,11.03
2017-09-08T00:53:24.995Z,11.03
2017-09-08T00:53:29.328Z,11.02
2017-09-08T00:53:33.647Z,11.02
2017-09-08T00:53:37.739Z,11.02
2017-09-08T00:53:41.951Z,11.03
2017-09-08T00:53:46.033Z,11.02
2017-09-08T00:53:49.998Z,11.02
2017-09-08T00:53:54.451Z,11.02
2017-09-08T00:53:58.663Z,11.02
2017-09-08T00:54:02.883Z,11.01
2017-09-08T00:54:06.969Z,11.02
2017-09-08T00:54:11.303Z,11.02
2017-09-08T00:54:15.528Z,11.01